Time;durP1;ratioP1;P1;durP2;ratioP2;P2;SDS_P1;SDS_P2;PMS_P1;PMS_P2;Temp;Humidity;BMP_temperature;BMP_pressure;BME280_temperature;BME280_humidity;BME280_pressure;Samples;Min_cycle;Max_cycle;Signal;HPM_P1;HPM_P2
2022/10/01 00:01:52;;;;;;;18.30;15.82;;;8.90;99.90;;;;;;5110219;28;20235;-66
2022/10/01 00:04:20;;;;;;;18.73;16.02;;;8.90;99.90;;;;;;5093107;28;20222;-66
2022/10/01 00:06:49;;;;;;;20.60;14.32;;;9.00;99.90;;;;;;5111872;28;20223;-66
2022/10/01 00:09:17;;;;;;;13.52;12.32;;;9.10;99.90;;;;;;5114120;28;20234;-66
2022/10/01 00:11:45;;;;;;;15.20;13.20;;;9.00;99.90;;;;;;5095831;28;20238;-66
2022/10/01 00:14:13;;;;;;;14.93;12.98;;;9.10;99.90;;;;;;5113491;28;22104;-67
2022/10/01 00:16:41;;;;;;;18.75;13.93;;;9.00;99.90;;;;;;5095491;28;20210;-65
2022/10/01 00:19:14;;;;;;;16.90;14.40;;;9.00;99.90;;;;;;5113454;28;20235;-65
2022/10/01 00:21:42;;;;;;;14.70;13.18;;;8.90;99.90;;;;;;5114673;28;20222;-65
2022/10/01 00:24:12;;;;;;;16.15;14.45;;;8.90;99.90;;;;;;5114231;28;20226;-66
2022/10/01 00:26:44;;;;;;;19.05;15.40;;;8.90;99.90;;;;;;5097012;28;20234;-67
2022/10/01 00:29:14;;;;;;;15.68;14.15;;;8.90;99.90;;;;;;5115112;28;20219;-66
2022/10/01 00:31:42;;;;;;;18.08;15.57;;;8.90;99.90;;;;;;5114379;28;20231;-66
2022/10/01 00:34:14;;;;;;;15.40;13.82;;;8.80;99.90;;;;;;5115096;28;20207;-66
2022/10/01 00:36:42;;;;;;;15.60;14.00;;;8.90;99.90;;;;;;5097205;28;20226;-66
2022/10/01 00:39:11;;;;;;;17.27;13.90;;;8.80;99.90;;;;;;5097394;28;20755;-66
2022/10/01 00:41:40;;;;;;;18.95;16.02;;;8.80;99.90;;;;;;5115245;28;20227;-66
2022/10/01 00:44:27;;;;;;;21.98;16.50;;;8.80;99.90;;;;;;5115114;28;20233;-66
2022/10/01 00:46:56;;;;;;;18.95;15.50;;;8.70;99.90;;;;;;5114480;28;20227;-65
2022/10/01 00:49:30;;;;;;;17.05;15.25;;;8.80;99.90;;;;;;5092220;28;20223;-65
2022/10/01 00:52:01;;;;;;;18.45;15.93;;;8.70;99.90;;;;;;5095207;28;20242;-65
2022/10/01 00:54:34;;;;;;;17.70;15.45;;;8.80;99.90;;;;;;5077085;28;20219;-65
2022/10/01 00:57:03;;;;;;;19.70;16.00;;;8.70;99.90;;;;;;5076841;28;20231;-66
2022/10/01 00:59:32;;;;;;;19.48;16.25;;;8.70;99.90;;;;;;5098385;28;20196;-66
2022/10/01 01:02:00;;;;;;;18.33;14.90;;;8.70;99.90;;;;;;5085569;28;20307;-65
2022/10/01 01:04:29;;;;;;;18.17;16.27;;;8.70;99.90;;;;;;5070939;28;20218;-65
2022/10/01 01:07:01;;;;;;;18.60;16.65;;;8.70;99.90;;;;;;5071742;28;20204;-65
2022/10/01 01:09:34;;;;;;;21.63;15.48;;;8.70;99.90;;;;;;5044113;28;20667;-65
2022/10/01 01:12:14;;;;;;;19.33;14.80;;;8.60;99.90;;;;;;5071623;28;20192;-65
2022/10/01 01:14:50;;;;;;;19.02;16.33;;;8.60;99.90;;;;;;5070806;28;20187;-65
2022/10/01 01:17:24;;;;;;;20.83;15.55;;;8.60;99.90;;;;;;5071948;28;20199;-65
2022/10/01 01:20:35;;;;;;;20.20;16.20;;;8.60;99.90;;;;;;5070528;28;20203;-66
2022/10/01 01:23:12;;;;;;;16.40;14.90;;;8.60;99.90;;;;;;5071604;28;20688;-65
2022/10/01 01:25:47;;;;;;;15.82;14.25;;;8.60;99.90;;;;;;5071474;28;20204;-65
2022/10/01 01:28:23;;;;;;;22.15;15.65;;;8.60;99.90;;;;;;5071842;28;20194;-65
2022/10/01 01:30:55;;;;;;;16.52;13.60;;;8.60;99.90;;;;;;5071532;28;20192;-65
2022/10/01 01:33:26;;;;;;;15.07;13.43;;;8.60;99.90;;;;;;5071401;28;20635;-65
2022/10/01 01:35:58;;;;;;;15.35;13.85;;;8.60;99.90;;;;;;5071411;28;20237;-65
2022/10/01 01:38:28;;;;;;;17.80;15.68;;;8.60;99.90;;;;;;5071105;28;20188;-65
2022/10/01 01:41:00;;;;;;;18.00;14.48;;;8.60;99.90;;;;;;5069790;28;20200;-65
2022/10/01 01:43:33;;;;;;;15.77;14.13;;;8.60;99.90;;;;;;5069139;28;20204;-65
2022/10/01 01:46:05;;;;;;;15.95;13.98;;;8.60;99.90;;;;;;5071569;28;20216;-63
2022/10/01 01:48:35;;;;;;;15.18;13.10;;;8.60;99.90;;;;;;5071118;28;20198;-65
2022/10/01 01:51:11;;;;;;;15.35;13.85;;;8.60;99.90;;;;;;5071224;28;20557;-65
2022/10/01 01:53:40;;;;;;;15.82;14.10;;;8.60;99.90;;;;;;5070278;28;20202;-65
2022/10/01 01:56:08;;;;;;;13.30;12.00;;;8.60;99.90;;;;;;5070587;28;20273;-65
2022/10/01 01:58:39;;;;;;;14.32;12.90;;;8.70;99.90;;;;;;5070285;28;20651;-65
2022/10/01 02:01:36;;;;;;;13.93;12.48;;;8.70;99.90;;;;;;5070355;28;20235;-65
2022/10/01 02:04:08;;;;;;;13.43;11.68;;;8.70;99.90;;;;;;5070301;28;20744;-65
2022/10/01 02:06:57;;;;;;;13.43;12.02;;;8.70;99.90;;;;;;5069602;28;20587;-65
2022/10/01 02:09:32;;;;;;;14.88;13.10;;;8.70;99.90;;;;;;5069778;28;20614;-65
2022/10/01 02:12:12;;;;;;;12.32;11.25;;;8.70;99.90;;;;;;5069886;28;20402;-65
2022/10/01 02:14:52;;;;;;;16.92;12.88;;;8.70;99.90;;;;;;5053431;28;20597;-65
2022/10/01 02:17:29;;;;;;;12.13;10.90;;;8.70;99.90;;;;;;5069965;28;20214;-65
2022/10/01 02:20:02;;;;;;;12.80;11.60;;;8.70;99.90;;;;;;5070078;28;20198;-65
2022/10/01 02:22:39;;;;;;;12.52;11.27;;;8.70;99.90;;;;;;5068924;28;20713;-65
2022/10/01 02:25:09;;;;;;;12.38;11.02;;;8.70;99.90;;;;;;5070219;28;20199;-65
2022/10/01 02:27:43;;;;;;;13.63;10.40;;;8.80;99.90;;;;;;5069241;28;20724;-65
2022/10/01 02:30:14;;;;;;;12.27;10.77;;;8.70;99.90;;;;;;5068601;28;20202;-65
2022/10/01 02:32:45;;;;;;;10.93;9.82;;;8.70;99.90;;;;;;5068343;28;20193;-65
2022/10/01 02:35:17;;;;;;;13.40;10.55;;;8.80;99.90;;;;;;5068661;28;20199;-65
2022/10/01 02:37:51;;;;;;;10.02;9.13;;;8.80;99.90;;;;;;5068923;28;20603;-65
2022/10/01 02:40:25;;;;;;;12.77;10.68;;;8.80;99.90;;;;;;5068959;28;20202;-65
2022/10/01 02:42:55;;;;;;;11.32;10.20;;;8.80;99.90;;;;;;5068553;28;20208;-65
2022/10/01 02:45:30;;;;;;;10.13;9.13;;;8.90;99.90;;;;;;5068284;28;20192;-65
2022/10/01 02:48:02;;;;;;;12.85;10.75;;;8.90;99.90;;;;;;5068862;28;20192;-65
2022/10/01 02:50:36;;;;;;;10.48;9.48;;;8.90;99.90;;;;;;5068578;28;20199;-65
2022/10/01 02:53:06;;;;;;;10.82;9.75;;;8.90;99.90;;;;;;5068970;28;20245;-65
2022/10/01 02:55:38;;;;;;;10.05;9.15;;;8.80;99.90;;;;;;5068299;28;20202;-65
2022/10/01 02:58:06;;;;;;;12.77;8.55;;;8.90;99.90;;;;;;5068938;28;20224;-64
2022/10/01 03:00:35;;;;;;;9.55;8.73;;;8.90;99.90;;;;;;5049136;28;20241;-64
2022/10/01 03:03:04;;;;;;;8.90;8.00;;;8.90;99.90;;;;;;5068093;28;20200;-64
2022/10/01 03:05:32;;;;;;;9.90;8.80;;;8.90;99.90;;;;;;5066480;28;20230;-64
2022/10/01 03:08:00;;;;;;;9.75;8.45;;;8.90;99.90;;;;;;5068863;28;20676;-64
2022/10/01 03:10:28;;;;;;;11.25;8.25;;;9.00;99.90;;;;;;5067373;28;20222;-64
2022/10/01 03:12:56;;;;;;;8.40;7.40;;;9.00;99.90;;;;;;5068589;28;20211;-64
2022/10/01 03:15:24;;;;;;;9.40;8.50;;;9.00;99.90;;;;;;5067914;28;20200;-63
2022/10/01 03:17:54;;;;;;;8.93;8.02;;;9.10;99.90;;;;;;5067038;28;20658;-64
2022/10/01 03:20:22;;;;;;;8.32;7.57;;;9.10;99.90;;;;;;5068007;28;20666;-63
2022/10/01 03:22:51;;;;;;;8.38;7.50;;;9.10;99.90;;;;;;5048896;28;20663;-64
2022/10/01 03:25:19;;;;;;;8.88;8.07;;;9.20;99.90;;;;;;5048322;28;20713;-64
2022/10/01 03:27:47;;;;;;;8.60;7.32;;;9.20;99.90;;;;;;5048567;28;20231;-64
2022/10/01 03:30:15;;;;;;;7.53;6.18;;;9.20;99.90;;;;;;5048594;28;20689;-65
2022/10/01 03:32:43;;;;;;;6.88;6.32;;;9.30;99.90;;;;;;5048706;28;20786;-64
2022/10/01 03:35:12;;;;;;;8.35;6.53;;;9.30;99.90;;;;;;5048299;28;20697;-64
2022/10/01 03:37:40;;;;;;;8.05;7.40;;;9.40;99.90;;;;;;5049100;28;20206;-64
2022/10/01 03:40:09;;;;;;;8.27;6.63;;;9.40;99.90;;;;;;5048615;28;20634;-64
2022/10/01 03:42:37;;;;;;;6.57;5.97;;;9.50;99.90;;;;;;5034358;28;20440;-64
2022/10/01 03:45:05;;;;;;;6.85;6.25;;;9.50;99.90;;;;;;5052949;28;20230;-63
2022/10/01 03:47:33;;;;;;;6.10;5.47;;;9.50;99.90;;;;;;5052787;28;20639;-63
2022/10/01 03:50:02;;;;;;;6.75;5.85;;;9.50;99.90;;;;;;5049498;28;20709;-63
2022/10/01 03:52:32;;;;;;;6.53;5.93;;;9.60;99.90;;;;;;5052626;28;20585;-63
2022/10/01 03:55:00;;;;;;;7.53;6.85;;;9.60;99.90;;;;;;5052602;28;20693;-64
2022/10/01 03:57:28;;;;;;;7.47;6.00;;;9.60;99.90;;;;;;5056126;28;20230;-64
2022/10/01 03:59:56;;;;;;;9.80;6.15;;;9.70;99.90;;;;;;5072007;28;20759;-65
2022/10/01 04:02:26;;;;;;;9.77;5.70;;;9.70;99.90;;;;;;5070683;28;20656;-64
2022/10/01 04:04:54;;;;;;;6.50;6.00;;;9.70;99.90;;;;;;5071279;28;20196;-64
2022/10/01 04:07:22;;;;;;;6.57;5.97;;;9.70;99.90;;;;;;5052894;28;20227;-64
2022/10/01 04:09:51;;;;;;;7.03;6.32;;;9.70;99.90;;;;;;5052765;28;20199;-63
2022/10/01 04:12:20;;;;;;;6.97;6.00;;;9.80;99.90;;;;;;5070998;28;20618;-63
2022/10/01 04:14:48;;;;;;;8.52;6.20;;;9.80;99.90;;;;;;5068971;28;20201;-65
2022/10/01 04:17:16;;;;;;;6.00;5.43;;;9.80;99.90;;;;;;5070617;28;20651;-64
2022/10/01 04:19:44;;;;;;;6.93;6.32;;;9.80;99.90;;;;;;5071002;28;20196;-64
2022/10/01 04:22:12;;;;;;;7.82;6.95;;;9.80;99.90;;;;;;5050426;28;20200;-64
2022/10/01 04:24:40;;;;;;;7.75;7.05;;;9.80;99.90;;;;;;5071044;28;20211;-64
2022/10/01 04:27:09;;;;;;;5.93;5.50;;;9.80;99.90;;;;;;5062953;28;20224;-64
2022/10/01 04:29:37;;;;;;;5.97;5.50;;;9.80;99.90;;;;;;5050986;28;20250;-65
2022/10/01 04:32:05;;;;;;;6.32;5.82;;;9.70;99.90;;;;;;5050791;28;20213;-65
2022/10/01 04:34:52;;;;;;;6.88;6.18;;;9.70;99.90;;;;;;5065201;28;20206;-64
2022/10/01 04:37:20;;;;;;;6.35;5.75;;;9.70;99.90;;;;;;5071017;28;20200;-64
2022/10/01 04:39:48;;;;;;;7.45;6.75;;;9.60;99.90;;;;;;5066095;28;20196;-64
2022/10/01 04:42:18;;;;;;;7.63;6.82;;;9.60;99.90;;;;;;5051419;28;20205;-65
2022/10/01 04:44:46;;;;;;;6.95;6.35;;;9.60;99.90;;;;;;5049372;28;20238;-65
2022/10/01 04:47:14;;;;;;;10.43;6.80;;;9.60;99.90;;;;;;5050424;28;20220;-65
2022/10/01 04:49:45;;;;;;;7.80;7.20;;;9.50;99.90;;;;;;5054878;28;20196;-65
2022/10/01 04:52:13;;;;;;;7.70;6.45;;;9.60;99.90;;;;;;5070487;28;20212;-64
2022/10/01 04:54:41;;;;;;;7.75;6.13;;;9.50;99.90;;;;;;5070106;28;20207;-64
2022/10/01 04:57:09;;;;;;;6.65;6.07;;;9.50;99.90;;;;;;5070761;28;20220;-64
2022/10/01 04:59:38;;;;;;;7.63;6.40;;;9.50;99.90;;;;;;5070347;28;20221;-64
2022/10/01 05:02:25;;;;;;;8.90;6.45;;;9.50;99.90;;;;;;5107005;27;20328;-63
2022/10/01 05:04:54;;;;;;;8.63;6.55;;;9.50;99.90;;;;;;5107181;28;20202;-63
2022/10/01 05:07:22;;;;;;;8.10;6.78;;;9.50;99.90;;;;;;5107227;28;20203;-63
2022/10/01 05:09:50;;;;;;;8.13;7.43;;;9.50;99.90;;;;;;5107095;28;20217;-63
2022/10/01 05:12:21;;;;;;;7.18;6.10;;;9.50;99.90;;;;;;5107339;28;20190;-64
2022/10/01 05:14:49;;;;;;;7.60;6.90;;;9.40;99.90;;;;;;5106965;28;20210;-64
2022/10/01 05:17:18;;;;;;;7.43;6.88;;;9.50;99.90;;;;;;5085577;28;20203;-64
2022/10/01 05:19:48;;;;;;;8.40;7.60;;;9.40;99.90;;;;;;5086508;28;20219;-64
2022/10/01 05:22:18;;;;;;;7.68;6.97;;;9.50;99.90;;;;;;5086770;28;20643;-64
2022/10/01 05:24:46;;;;;;;7.50;6.90;;;9.50;99.90;;;;;;5086631;28;20203;-64
2022/10/01 05:27:14;;;;;;;6.40;5.75;;;9.50;99.90;;;;;;5095027;28;20202;-64
2022/10/01 05:29:42;;;;;;;8.10;6.63;;;9.50;99.90;;;;;;5105698;28;20191;-64
2022/10/01 05:32:11;;;;;;;9.45;7.35;;;9.40;99.90;;;;;;5105184;28;20243;-64
2022/10/01 05:34:39;;;;;;;7.72;6.18;;;9.50;99.90;;;;;;5104374;28;20191;-64
2022/10/01 05:37:27;;;;;;;7.93;7.22;;;9.50;99.90;;;;;;5102875;28;20665;-64
2022/10/01 05:39:55;;;;;;;10.63;5.43;;;9.50;99.90;;;;;;5105100;28;20812;-64
2022/10/01 05:42:23;;;;;;;7.05;6.45;;;9.50;99.90;;;;;;5099996;28;20225;-64
2022/10/01 05:44:51;;;;;;;6.70;6.00;;;9.50;99.90;;;;;;5105276;28;20315;-64
2022/10/01 05:47:20;;;;;;;5.70;5.20;;;9.50;99.90;;;;;;5105281;28;20206;-64
2022/10/01 05:49:48;;;;;;;7.07;6.38;;;9.50;99.90;;;;;;5104998;28;20195;-64
2022/10/01 05:52:16;;;;;;;9.38;6.72;;;9.60;99.90;;;;;;5102895;28;20213;-64
2022/10/01 05:54:46;;;;;;;6.43;5.82;;;9.50;99.90;;;;;;5102361;28;20255;-64
2022/10/01 05:57:14;;;;;;;6.65;6.00;;;9.60;99.90;;;;;;5097467;28;20231;-64
2022/10/01 05:59:43;;;;;;;6.13;5.63;;;9.60;99.90;;;;;;5095436;28;20199;-64
2022/10/01 06:02:11;;;;;;;9.15;5.90;;;9.60;99.90;;;;;;5114537;28;20226;-64
2022/10/01 06:04:39;;;;;;;5.70;5.20;;;9.50;99.90;;;;;;5109503;27;20603;-64
2022/10/01 06:07:07;;;;;;;6.40;5.80;;;9.50;99.90;;;;;;5106720;28;20721;-64
2022/10/01 06:09:35;;;;;;;7.68;6.75;;;9.50;99.90;;;;;;5104451;28;20195;-64
2022/10/01 06:12:08;;;;;;;5.50;5.00;;;9.50;99.90;;;;;;5103438;28;20191;-64
2022/10/01 06:14:36;;;;;;;5.78;5.38;;;9.50;99.90;;;;;;5104434;28;20198;-64
2022/10/01 06:17:04;;;;;;;7.45;6.20;;;9.60;99.90;;;;;;5100696;28;20203;-64
2022/10/01 06:19:32;;;;;;;7.00;5.25;;;9.60;99.90;;;;;;5106359;28;20213;-64
2022/10/01 06:22:00;;;;;;;5.55;5.10;;;9.60;99.90;;;;;;5111944;28;20617;-64
2022/10/01 06:24:29;;;;;;;5.40;4.85;;;9.60;99.90;;;;;;5104081;28;20667;-64
2022/10/01 06:26:56;;;;;;;5.22;4.75;;;9.70;99.90;;;;;;5112259;28;20191;-64
2022/10/01 06:29:26;;;;;;;5.30;4.90;;;9.70;99.90;;;;;;5112122;28;20228;-64
2022/10/01 06:31:54;;;;;;;5.20;4.65;;;9.70;99.90;;;;;;5096769;28;20191;-64
2022/10/01 06:34:22;;;;;;;5.30;4.90;;;9.70;99.90;;;;;;5101054;28;20199;-64
2022/10/01 06:36:50;;;;;;;5.10;4.68;;;9.70;99.90;;;;;;5110065;28;20207;-64
2022/10/01 06:39:18;;;;;;;6.00;4.40;;;9.80;99.90;;;;;;5106567;28;20202;-63
2022/10/01 06:41:47;;;;;;;4.80;4.40;;;9.80;99.90;;;;;;5099671;28;20227;-64
2022/10/01 06:44:16;;;;;;;5.35;4.85;;;9.80;99.90;;;;;;5112067;28;20202;-64
2022/10/01 06:46:45;;;;;;;4.53;4.13;;;9.90;99.90;;;;;;5109838;28;20209;-66
2022/10/01 06:49:14;;;;;;;5.85;4.28;;;9.90;99.90;;;;;;5111419;28;20205;-65
2022/10/01 06:54:38;;;;;;;3.97;3.60;;;9.90;99.90;;;;;;5111594;28;20207;-66
2022/10/01 06:57:06;;;;;;;4.20;3.90;;;9.90;99.90;;;;;;5103409;28;20295;-64
2022/10/01 06:59:35;;;;;;;8.38;4.13;;;10.00;99.90;;;;;;5096935;28;20214;-65
2022/10/01 07:02:05;;;;;;;5.40;4.53;;;10.00;99.90;;;;;;5108168;28;20245;-64
2022/10/01 07:04:33;;;;;;;3.83;3.53;;;10.00;99.90;;;;;;5109988;28;20854;-64
2022/10/01 07:07:01;;;;;;;4.35;3.85;;;10.10;99.90;;;;;;5112000;28;20234;-64
2022/10/01 07:09:29;;;;;;;4.40;3.97;;;10.00;99.90;;;;;;5095887;28;20195;-66
2022/10/01 07:11:57;;;;;;;5.03;3.95;;;10.00;99.90;;;;;;5105447;28;20601;-64
2022/10/01 07:14:26;;;;;;;4.20;3.90;;;10.00;99.90;;;;;;5099957;28;20610;-64
2022/10/01 07:16:54;;;;;;;5.07;3.65;;;10.10;99.90;;;;;;5101199;28;20221;-63
2022/10/01 07:19:24;;;;;;;7.00;4.57;;;10.10;99.90;;;;;;5101743;28;20203;-64
2022/10/01 07:21:52;;;;;;;10.80;9.70;;;10.10;99.90;;;;;;5104666;28;20650;-62
2022/10/01 07:24:19;;;;;;;7.20;6.50;;;10.10;99.90;;;;;;5097575;28;20209;-62
2022/10/01 07:26:49;;;;;;;5.55;4.45;;;10.10;99.90;;;;;;5099646;28;20207;-64
2022/10/01 07:29:17;;;;;;;4.40;4.10;;;10.10;99.90;;;;;;5110414;28;20259;-64
2022/10/01 07:31:47;;;;;;;4.28;3.90;;;10.10;99.90;;;;;;5092897;28;20195;-64
2022/10/01 07:34:15;;;;;;;4.93;4.50;;;10.10;99.90;;;;;;5090778;28;20206;-64
2022/10/01 07:36:45;;;;;;;5.68;4.43;;;10.10;99.90;;;;;;5092677;28;20205;-64
2022/10/01 07:39:13;;;;;;;3.90;3.65;;;10.10;99.90;;;;;;5090124;28;20225;-64
2022/10/01 07:41:42;;;;;;;3.90;3.58;;;10.10;99.90;;;;;;5090117;28;20215;-65
2022/10/01 07:44:11;;;;;;;4.78;4.38;;;10.10;99.90;;;;;;5105661;28;20879;-64
2022/10/01 07:46:39;;;;;;;5.60;5.05;;;10.00;99.90;;;;;;5094812;28;20199;-64
2022/10/01 07:49:09;;;;;;;10.13;9.18;;;10.10;99.90;;;;;;5092585;28;20198;-64
2022/10/01 07:51:37;;;;;;;13.68;12.35;;;10.10;99.90;;;;;;5101584;28;20194;-64
2022/10/01 07:54:06;;;;;;;12.48;11.35;;;10.10;99.90;;;;;;5096911;28;20660;-64
2022/10/01 07:56:35;;;;;;;9.65;8.82;;;10.10;99.90;;;;;;5104633;28;20705;-65
2022/10/01 07:59:03;;;;;;;7.07;6.38;;;10.10;99.90;;;;;;5103526;28;20255;-63
2022/10/01 08:01:32;;;;;;;5.35;4.63;;;10.10;99.90;;;;;;5093846;28;20749;-63
2022/10/01 08:04:00;;;;;;;6.70;4.63;;;10.10;99.90;;;;;;5106189;28;20195;-64
2022/10/01 08:06:28;;;;;;;4.80;4.30;;;10.10;99.90;;;;;;5091236;28;20207;-63
2022/10/01 08:08:57;;;;;;;7.50;5.22;;;10.10;99.90;;;;;;5100081;28;20207;-64
2022/10/01 08:11:26;;;;;;;6.18;4.75;;;10.10;99.90;;;;;;5102377;28;20779;-63
2022/10/01 08:13:56;;;;;;;5.05;4.68;;;10.10;99.90;;;;;;5099485;28;20195;-63
2022/10/01 08:16:28;;;;;;;9.43;4.40;;;10.10;99.90;;;;;;5097135;28;20202;-63
2022/10/01 08:18:56;;;;;;;5.97;3.90;;;10.00;99.90;;;;;;5094829;28;20588;-62
2022/10/01 08:21:25;;;;;;;7.00;4.60;;;10.10;99.90;;;;;;5096094;28;20740;-63
2022/10/01 08:23:53;;;;;;;4.75;4.20;;;10.00;99.90;;;;;;5109313;28;20604;-63
2022/10/01 08:26:21;;;;;;;5.43;4.95;;;10.00;99.90;;;;;;5089852;28;20205;-63
2022/10/01 08:28:50;;;;;;;5.47;4.53;;;10.00;99.90;;;;;;5089914;28;20203;-63
2022/10/01 08:31:18;;;;;;;4.43;4.13;;;10.10;99.90;;;;;;5096230;28;20233;-63
2022/10/01 08:33:46;;;;;;;4.90;4.55;;;10.10;99.90;;;;;;5107044;28;20195;-63
2022/10/01 08:36:15;;;;;;;5.18;4.65;;;10.10;99.90;;;;;;5093250;28;20199;-62
2022/10/01 08:38:45;;;;;;;5.68;5.10;;;10.00;99.90;;;;;;5102510;28;20225;-63
2022/10/01 08:41:30;;;;;;;4.82;4.53;;;10.10;99.90;;;;;;5093022;28;20219;-65
2022/10/01 08:44:01;;;;;;;4.30;4.00;;;10.10;99.90;;;;;;5096251;28;20211;-65
2022/10/01 08:46:37;;;;;;;5.95;4.30;;;10.10;99.90;;;;;;5089091;28;20696;-65
2022/10/01 08:49:16;;;;;;;4.70;4.35;;;10.10;99.90;;;;;;5090466;28;20354;-63
2022/10/01 08:51:50;;;;;;;6.03;5.28;;;10.00;99.90;;;;;;5089525;28;20195;-64
2022/10/01 08:54:32;;;;;;;5.63;4.68;;;10.10;99.90;;;;;;5093554;28;20197;-64
2022/10/01 08:57:03;;;;;;;5.53;4.90;;;10.10;99.90;;;;;;5109407;28;20742;-64
2022/10/01 08:59:39;;;;;;;5.03;4.57;;;10.10;99.90;;;;;;5102651;28;20203;-63
2022/10/01 09:02:19;;;;;;;6.95;6.35;;;10.20;99.90;;;;;;5100636;28;20598;-65
2022/10/01 09:04:50;;;;;;;4.72;4.43;;;10.10;99.90;;;;;;5090714;28;20207;-63
2022/10/01 09:07:36;;;;;;;5.10;4.20;;;10.10;99.90;;;;;;5109154;28;20201;-62
2022/10/01 09:10:20;;;;;;;5.28;4.88;;;10.20;99.90;;;;;;5105844;28;20195;-62
2022/10/01 09:13:07;;;;;;;4.32;4.03;;;10.20;99.90;;;;;;5100588;28;20191;-62
2022/10/01 09:15:47;;;;;;;5.93;5.53;;;10.20;99.90;;;;;;5097318;28;20196;-62
2022/10/01 09:18:22;;;;;;;6.15;5.35;;;10.20;99.90;;;;;;5096625;28;20198;-63
2022/10/01 09:20:54;;;;;;;5.70;5.22;;;10.30;99.90;;;;;;5108282;28;20201;-63
2022/10/01 09:23:28;;;;;;;8.57;5.63;;;10.20;99.90;;;;;;5087754;28;20230;-63
2022/10/01 09:25:58;;;;;;;5.40;5.00;;;10.30;99.90;;;;;;5087457;28;20220;-63
2022/10/01 09:28:29;;;;;;;6.10;5.55;;;10.20;99.90;;;;;;5088740;28;20188;-63
2022/10/01 09:31:04;;;;;;;5.70;5.30;;;10.30;99.90;;;;;;5089024;28;20248;-63
2022/10/01 09:33:56;;;;;;;5.60;4.85;;;10.30;99.90;;;;;;5087632;28;20191;-61
2022/10/01 09:36:33;;;;;;;5.05;4.70;;;10.40;99.90;;;;;;5089367;28;20183;-63
2022/10/01 09:39:12;;;;;;;5.18;4.78;;;10.30;99.90;;;;;;5100817;28;20243;-63
2022/10/01 09:41:40;;;;;;;8.13;5.65;;;10.40;99.90;;;;;;5115940;28;21205;-62
2022/10/01 09:44:16;;;;;;;5.10;4.70;;;10.40;99.90;;;;;;5103028;28;20238;-63
2022/10/01 09:46:47;;;;;;;4.53;4.10;;;10.50;99.90;;;;;;5103995;27;20195;-64
2022/10/01 09:49:24;;;;;;;4.90;4.50;;;10.60;99.90;;;;;;5107668;28;20207;-64
2022/10/01 09:51:57;;;;;;;4.32;4.13;;;10.60;99.90;;;;;;5113511;28;20206;-63
2022/10/01 09:54:32;;;;;;;12.27;10.13;;;10.70;99.90;;;;;;5110740;27;20205;-63
2022/10/01 09:57:05;;;;;;;5.65;5.22;;;10.70;99.90;;;;;;5092945;28;20206;-64
2022/10/01 09:59:40;;;;;;;5.35;4.50;;;10.70;99.90;;;;;;5112485;28;20209;-62
2022/10/01 10:02:17;;;;;;;4.30;4.10;;;10.80;99.90;;;;;;5106805;28;20226;-63
2022/10/01 10:04:45;;;;;;;3.80;3.50;;;10.80;99.90;;;;;;5111266;28;20562;-63
2022/10/01 10:07:18;;;;;;;5.15;3.80;;;10.70;99.90;;;;;;5104230;28;20205;-62
2022/10/01 10:09:46;;;;;;;3.60;3.40;;;10.80;99.90;;;;;;5098556;28;20684;-63
2022/10/01 10:12:28;;;;;;;4.45;3.75;;;10.80;99.90;;;;;;5093151;28;20557;-62
2022/10/01 10:14:57;;;;;;;6.35;4.13;;;10.90;99.90;;;;;;5100128;28;20187;-63
2022/10/01 10:17:27;;;;;;;4.57;4.15;;;10.80;99.90;;;;;;5108126;28;20205;-63
2022/10/01 10:19:55;;;;;;;4.22;3.83;;;10.90;99.90;;;;;;5109874;28;20195;-63
2022/10/01 10:22:25;;;;;;;5.03;4.70;;;10.90;99.90;;;;;;5102568;28;20193;-67
2022/10/01 10:24:56;;;;;;;4.63;3.72;;;10.90;99.90;;;;;;5113071;28;20203;-63
2022/10/01 10:27:26;;;;;;;4.75;4.30;;;10.90;99.90;;;;;;5107432;28;20202;-63
2022/10/01 10:30:05;;;;;;;3.60;3.40;;;10.90;99.90;;;;;;5101770;28;20199;-63
2022/10/01 10:32:35;;;;;;;4.38;4.07;;;10.90;99.90;;;;;;5110058;28;20213;-63
2022/10/01 10:35:09;;;;;;;5.82;5.45;;;10.90;99.90;;;;;;5092812;28;20200;-63
2022/10/01 10:37:44;;;;;;;3.22;2.72;;;10.90;99.90;;;;;;5114963;27;20193;-63
2022/10/01 10:40:18;;;;;;;4.97;4.53;;;10.90;99.90;;;;;;5132755;27;20620;-63
2022/10/01 10:42:49;;;;;;;3.88;3.67;;;10.90;99.90;;;;;;5113572;27;20680;-63
2022/10/01 10:45:20;;;;;;;3.47;3.28;;;10.90;99.90;;;;;;5112675;28;20191;-63
2022/10/01 10:47:52;;;;;;;4.05;3.17;;;10.90;99.90;;;;;;5092027;28;20187;-63
2022/10/01 10:50:30;;;;;;;4.30;3.88;;;10.90;99.90;;;;;;5092355;28;20192;-63
2022/10/01 10:52:58;;;;;;;4.10;3.90;;;11.00;99.90;;;;;;5091149;28;20676;-63
2022/10/01 10:55:29;;;;;;;4.50;4.10;;;11.10;99.90;;;;;;5092625;28;20198;-64
2022/10/01 10:58:10;;;;;;;3.80;3.60;;;11.10;99.90;;;;;;5091357;28;20222;-63
2022/10/01 11:00:47;;;;;;;3.45;3.25;;;11.00;99.90;;;;;;5091541;28;20223;-62
2022/10/01 11:03:20;;;;;;;4.70;4.15;;;11.00;99.90;;;;;;5110971;28;20214;-63
2022/10/01 11:05:50;;;;;;;11.98;7.30;;;11.10;99.90;;;;;;5111574;28;20198;-63
2022/10/01 11:08:23;;;;;;;6.78;6.15;;;11.10;99.90;;;;;;5111944;28;20329;-62
2022/10/01 11:11:03;;;;;;;4.30;4.00;;;11.10;99.90;;;;;;5099576;28;20268;-62
2022/10/01 11:14:02;;;;;;;5.80;3.35;;;11.10;99.90;;;;;;5111531;28;20610;-62
2022/10/01 11:17:00;;;;;;;4.60;4.13;;;11.10;99.90;;;;;;5094045;28;20201;-62
2022/10/01 11:19:50;;;;;;;4.93;4.50;;;11.20;99.90;;;;;;5074695;28;20199;-60
2022/10/01 11:22:31;;;;;;;4.35;4.05;;;11.20;99.90;;;;;;5090903;28;20617;-62
2022/10/01 11:25:32;;;;;;;4.25;3.95;;;11.20;99.90;;;;;;5101121;28;20312;-62
2022/10/01 11:28:13;;;;;;;4.65;3.55;;;11.30;99.90;;;;;;5051749;28;20199;-63
2022/10/01 11:30:50;;;;;;;5.35;4.95;;;11.30;99.90;;;;;;5094141;28;20195;-63
2022/10/01 11:33:26;;;;;;;4.60;4.30;;;11.40;99.90;;;;;;5096888;28;20323;-63
2022/10/01 11:36:00;;;;;;;3.33;3.10;;;11.50;99.90;;;;;;5110670;28;20557;-63
2022/10/01 11:38:44;;;;;;;7.07;6.60;;;11.50;99.90;;;;;;5095247;28;20210;-63
2022/10/01 11:41:21;;;;;;;4.25;3.95;;;11.50;99.90;;;;;;5090657;28;20187;-63
2022/10/01 11:43:53;;;;;;;3.60;3.40;;;11.60;99.90;;;;;;5109454;28;20214;-63
2022/10/01 11:46:47;;;;;;;3.30;3.00;;;11.70;99.90;;;;;;5090889;28;20191;-62
2022/10/01 11:49:41;;;;;;;4.15;2.83;;;11.70;99.90;;;;;;5090327;28;20184;-63
2022/10/01 11:52:19;;;;;;;2.50;2.40;;;11.70;99.90;;;;;;5091615;28;20191;-63
2022/10/01 11:58:49;;;;;;;4.25;3.95;;;11.80;99.90;;;;;;5090504;28;20206;-63
2022/10/01 12:00:59;;;;;;;3.50;3.30;;;12.00;99.90;;;;;;5109837;28;20608;-63
2022/10/01 12:03:35;;;;;;;3.17;3.05;;;12.00;99.90;;;;;;5108984;28;20210;-63
2022/10/01 12:06:08;;;;;;;2.70;2.50;;;12.10;99.90;;;;;;5096378;28;20214;-63
2022/10/01 12:08:38;;;;;;;3.92;3.63;;;12.10;99.90;;;;;;5102821;28;20621;-63
2022/10/01 12:11:15;;;;;;;2.20;2.10;;;12.10;99.90;;;;;;5090107;28;20202;-63
2022/10/01 12:13:54;;;;;;;3.00;2.80;;;12.10;99.90;;;;;;5089693;28;20539;-63
2022/10/01 12:16:36;;;;;;;6.75;4.43;;;12.20;99.90;;;;;;5096552;28;20198;-63
2022/10/01 12:19:11;;;;;;;8.98;7.63;;;12.30;99.90;;;;;;5091552;28;20191;-62
2022/10/01 12:21:43;;;;;;;2.28;2.08;;;12.30;99.90;;;;;;5090198;28;20456;-63
2022/10/01 12:24:16;;;;;;;3.00;2.75;;;12.30;99.90;;;;;;5104026;27;20227;-63
2022/10/01 12:26:54;;;;;;;7.93;7.33;;;12.40;99.90;;;;;;5099236;27;20203;-64
2022/10/01 12:29:28;;;;;;;2.65;1.98;;;12.50;99.90;;;;;;5103080;28;20608;-63
2022/10/01 12:32:33;;;;;;;2.25;2.15;;;12.40;99.90;;;;;;5087734;27;20200;-63
2022/10/01 12:35:12;;;;;;;2.63;2.43;;;12.50;99.90;;;;;;5107373;27;20186;-63
2022/10/01 12:37:53;;;;;;;3.50;2.60;;;12.70;99.90;;;;;;5099476;28;20581;-63
2022/10/01 12:40:30;;;;;;;2.00;1.90;;;12.80;99.90;;;;;;5107790;28;20575;-63
2022/10/01 12:43:19;;;;;;;3.10;2.67;;;13.00;99.90;;;;;;5092661;28;20954;-63
2022/10/01 12:45:55;;;;;;;2.70;2.50;;;13.20;99.90;;;;;;5089863;28;20641;-63
2022/10/01 12:48:30;;;;;;;4.60;4.20;;;13.50;99.90;;;;;;5091195;28;20626;-63
2022/10/01 12:51:14;;;;;;;2.63;2.43;;;13.80;99.90;;;;;;5089999;28;20931;-62
2022/10/01 12:53:49;;;;;;;4.03;3.83;;;13.90;99.90;;;;;;5101207;28;20958;-63
2022/10/01 12:56:29;;;;;;;1.40;1.30;;;14.00;99.90;;;;;;5090496;28;20644;-62
2022/10/01 12:59:26;;;;;;;3.60;1.60;;;13.80;99.90;;;;;;5089634;28;20682;-63
2022/10/01 13:02:09;;;;;;;1.90;1.70;;;13.80;99.90;;;;;;5101169;28;21021;-62
2022/10/01 13:04:54;;;;;;;3.73;3.27;;;13.70;99.90;;;;;;5097552;28;20649;-63
2022/10/01 13:07:38;;;;;;;1.47;1.37;;;13.60;99.90;;;;;;5094780;28;21104;-63
2022/10/01 13:10:22;;;;;;;1.43;1.20;;;13.70;99.90;;;;;;5099555;28;20628;-64
2022/10/01 13:13:00;;;;;;;1.43;1.27;;;13.80;99.90;;;;;;5099890;28;20622;-62
2022/10/01 13:15:33;;;;;;;1.60;1.50;;;13.80;99.90;;;;;;5099198;28;20595;-62
2022/10/01 13:18:11;;;;;;;2.13;1.17;;;13.90;99.90;;;;;;5105742;28;20957;-63
2022/10/01 13:20:44;;;;;;;3.20;1.38;;;13.90;99.90;;;;;;5107657;28;20596;-63
2022/10/01 13:23:19;;;;;;;1.23;1.13;;;13.90;99.90;;;;;;5111932;28;20193;-63